createdAt,value
2022-10-20T00:04:13.779Z,100.00
2022-10-20T00:09:22.135Z,100.00
2022-10-20T00:14:27.829Z,100.00
2022-10-20T00:19:32.762Z,100.00
2022-10-20T00:24:36.693Z,100.00
2022-10-20T00:29:40.350Z,100.00
2022-10-20T00:34:43.576Z,100.00
2022-10-20T00:39:46.830Z,100.00
2022-10-20T00:44:57.864Z,100.00
2022-10-20T00:50:22.961Z,100.00
2022-10-20T00:55:29.483Z,100.00
2022-10-20T01:06:42.544Z,100.00
2022-10-20T01:12:01.444Z,100.00
2022-10-20T01:17:26.643Z,100.00
2022-10-20T01:22:53.030Z,100.00
2022-10-20T01:28:02.124Z,100.00
2022-10-20T01:38:41.395Z,100.00
2022-10-20T01:43:46.718Z,100.00
2022-10-20T01:48:50.686Z,100.00
2022-10-20T01:53:53.820Z,100.00
2022-10-20T01:59:10.866Z,100.00
2022-10-20T02:04:14.800Z,100.00
2022-10-20T02:09:43.337Z,100.00
2022-10-20T02:15:05.924Z,100.00
2022-10-20T02:20:10.842Z,100.00
2022-10-20T02:25:14.697Z,100.00
2022-10-20T02:30:18.931Z,100.00
2022-10-20T02:35:31.217Z,100.00
2022-10-20T02:40:34.393Z,100.00
2022-10-20T02:45:37.686Z,100.00
2022-10-20T02:50:40.796Z,100.00
2022-10-20T02:55:44.075Z,100.00
2022-10-20T03:00:50.077Z,100.00
2022-10-20T03:05:53.289Z,100.00
2022-10-20T03:10:56.440Z,100.00
2022-10-20T03:15:59.905Z,100.00
2022-10-20T03:21:05.436Z,100.00
2022-10-20T03:26:10.895Z,100.00
2022-10-20T03:31:14.083Z,100.00
2022-10-20T03:36:17.325Z,100.00
2022-10-20T03:41:20.532Z,100.00
2022-10-20T03:46:23.724Z,100.00
2022-10-20T03:51:27.172Z,100.00
2022-10-20T03:56:37.525Z,100.00
2022-10-20T04:01:47.155Z,100.00
2022-10-20T04:06:50.619Z,100.00
2022-10-20T04:11:53.605Z,100.00
2022-10-20T04:16:56.816Z,100.00
2022-10-20T04:22:00.031Z,100.00
2022-10-20T04:27:05.543Z,100.00
2022-10-20T04:32:11.027Z,100.00
2022-10-20T04:37:14.185Z,100.00
2022-10-20T04:42:20.276Z,100.00
2022-10-20T04:47:23.436Z,100.00
2022-10-20T04:52:26.604Z,100.00
2022-10-20T04:57:29.775Z,100.00
2022-10-20T05:02:33.012Z,100.00
2022-10-20T05:07:36.614Z,100.00
2022-10-20T05:12:40.083Z,100.00
2022-10-20T05:17:43.408Z,100.00
2022-10-20T05:22:46.589Z,100.00
2022-10-20T05:27:49.749Z,100.00
2022-10-20T05:32:53.106Z,100.00
2022-10-20T05:37:57.129Z,100.00
2022-10-20T05:43:00.633Z,100.00
2022-10-20T05:48:03.747Z,100.00
2022-10-20T05:53:06.933Z,100.00
2022-10-20T05:58:10.101Z,100.00
2022-10-20T06:03:16.146Z,100.00
2022-10-20T06:08:22.411Z,100.00
2022-10-20T06:13:25.698Z,100.00
2022-10-20T06:18:28.990Z,100.00
2022-10-20T06:23:32.538Z,100.00
2022-10-20T06:28:38.531Z,100.00
2022-10-20T06:33:42.048Z,100.00
2022-10-20T06:38:45.658Z,100.00
2022-10-20T06:43:49.109Z,100.00
2022-10-20T06:48:55.015Z,100.00
2022-10-20T06:54:02.998Z,100.00
2022-10-20T06:59:06.291Z,100.00
2022-10-20T07:04:15.360Z,100.00
2022-10-20T07:09:19.535Z,100.00
2022-10-20T07:14:24.085Z,100.00
2022-10-20T07:19:27.399Z,100.00
2022-10-20T07:24:33.014Z,100.00
2022-10-20T07:29:38.036Z,100.00
2022-10-20T07:34:41.381Z,100.00
2022-10-20T07:39:44.556Z,100.00
2022-10-20T07:44:49.379Z,100.00
2022-10-20T07:49:52.556Z,100.00
2022-10-20T07:55:06.327Z,100.00
2022-10-20T08:00:19.183Z,100.00
2022-10-20T08:05:22.718Z,100.00
2022-10-20T08:10:26.078Z,100.00
2022-10-20T08:15:29.268Z,100.00
2022-10-20T08:20:35.007Z,100.00
2022-10-20T08:25:40.155Z,100.00
2022-10-20T08:30:43.411Z,100.00
2022-10-20T08:35:51.821Z,100.00
2022-10-20T08:40:54.969Z,100.00
2022-10-20T08:46:02.857Z,100.00
2022-10-20T08:51:06.220Z,100.00
2022-10-20T08:56:13.429Z,100.00
2022-10-20T09:01:29.487Z,100.00
2022-10-20T09:06:35.321Z,100.00
2022-10-20T09:11:41.410Z,100.00
2022-10-20T09:17:01.273Z,100.00
2022-10-20T09:22:07.083Z,100.00
2022-10-20T09:27:23.403Z,100.00
2022-10-20T09:32:51.173Z,100.00
2022-10-20T09:38:03.676Z,100.00
2022-10-20T09:43:12.388Z,100.00
2022-10-20T09:48:19.643Z,100.00
2022-10-20T09:53:29.708Z,100.00
2022-10-20T09:58:35.505Z,100.00
2022-10-20T10:03:47.558Z,99.53
2022-10-20T10:08:50.825Z,99.07
2022-10-20T10:13:54.667Z,98.81
2022-10-20T10:19:03.140Z,97.63
2022-10-20T10:24:06.856Z,96.95
2022-10-20T10:29:33.310Z,96.60
2022-10-20T10:35:15.179Z,96.43
2022-10-20T10:40:24.852Z,96.19
2022-10-20T10:45:52.175Z,94.96
2022-10-20T10:51:01.082Z,94.06
2022-10-20T10:56:23.075Z,93.49
2022-10-20T11:01:33.016Z,93.12
2022-10-20T11:06:58.358Z,92.73
2022-10-20T11:12:23.548Z,91.93
2022-10-20T11:18:01.213Z,91.61
2022-10-20T11:23:17.099Z,91.16
2022-10-20T11:28:44.855Z,91.24
2022-10-20T11:33:54.250Z,90.49
2022-10-20T11:38:57.568Z,90.48
2022-10-20T11:44:13.680Z,89.58
2022-10-20T11:49:18.793Z,88.95
2022-10-20T11:54:41.044Z,88.91
2022-10-20T12:00:05.935Z,88.19
2022-10-20T12:05:21.899Z,87.24
2022-10-20T12:10:29.356Z,86.54
2022-10-20T12:15:33.214Z,86.05
2022-10-20T12:20:36.383Z,85.78
2022-10-20T12:25:41.529Z,85.45
2022-10-20T12:30:46.585Z,84.62
2022-10-20T12:36:14.371Z,84.81
2022-10-20T12:41:42.222Z,84.47
2022-10-20T12:47:04.185Z,84.21
2022-10-20T12:52:09.559Z,83.88
2022-10-20T12:57:46.552Z,83.78
2022-10-20T13:02:56.742Z,82.90
2022-10-20T13:08:03.706Z,81.86
2022-10-20T13:13:13.217Z,81.76
2022-10-20T13:18:29.429Z,81.49
2022-10-20T13:23:43.828Z,81.26
2022-10-20T13:28:48.961Z,80.30
2022-10-20T13:34:05.909Z,80.04
2022-10-20T13:39:42.563Z,79.88
2022-10-20T13:44:55.745Z,79.16
2022-10-20T13:50:09.081Z,79.17
2022-10-20T13:55:51.758Z,78.98
2022-10-20T14:01:04.685Z,77.91
2022-10-20T14:06:40.459Z,77.60
2022-10-20T14:11:46.464Z,77.18
2022-10-20T14:17:04.657Z,76.93
2022-10-20T14:22:16.493Z,76.53
2022-10-20T14:27:24.606Z,76.51
2022-10-20T14:32:30.697Z,76.65
2022-10-20T14:37:40.421Z,76.55
2022-10-20T14:42:45.097Z,76.58
2022-10-20T14:47:49.084Z,75.84
2022-10-20T14:52:54.210Z,75.21
2022-10-20T14:58:02.222Z,75.30
2022-10-20T15:03:10.758Z,75.33
2022-10-20T15:08:36.083Z,75.38
2022-10-20T15:14:03.832Z,75.36
2022-10-20T15:19:36.177Z,75.42
2022-10-20T15:24:51.784Z,75.37
2022-10-20T15:30:19.832Z,75.44
2022-10-20T15:35:31.578Z,75.39
2022-10-20T15:40:37.875Z,75.47
2022-10-20T15:45:54.674Z,75.48
2022-10-20T15:51:31.902Z,75.64
2022-10-20T15:56:38.955Z,75.66
2022-10-20T16:01:48.796Z,75.88
2022-10-20T16:07:02.755Z,76.04
2022-10-20T16:12:30.947Z,76.09
2022-10-20T16:17:46.142Z,76.52
2022-10-20T16:22:52.774Z,76.89
2022-10-20T16:27:56.340Z,77.13
2022-10-20T16:33:05.097Z,77.55
2022-10-20T16:38:08.659Z,77.83
2022-10-20T16:43:51.078Z,77.88
2022-10-20T16:48:58.088Z,78.10
2022-10-20T16:54:11.142Z,78.68
2022-10-20T16:59:36.206Z,78.70
2022-10-20T17:04:47.130Z,78.67
2022-10-20T17:09:58.412Z,78.92
2022-10-20T17:15:01.917Z,79.20
2022-10-20T17:20:08.836Z,79.27
2022-10-20T17:25:14.254Z,79.59
2022-10-20T17:30:17.881Z,79.93
2022-10-20T17:35:21.538Z,80.01
2022-10-20T17:40:25.288Z,80.14
2022-10-20T17:45:41.299Z,80.52
2022-10-20T17:50:49.728Z,80.74
2022-10-20T17:56:04.803Z,80.93
2022-10-20T18:01:21.088Z,81.17
2022-10-20T18:06:31.168Z,81.46
2022-10-20T18:11:38.890Z,81.70
2022-10-20T18:16:45.561Z,81.79
2022-10-20T18:21:52.253Z,81.86
2022-10-20T18:26:58.496Z,82.24
2022-10-20T18:32:02.002Z,82.27
2022-10-20T18:37:18.587Z,82.29
2022-10-20T18:42:29.906Z,82.39
2022-10-20T18:47:42.194Z,82.60
2022-10-20T18:52:46.396Z,82.48
2022-10-20T18:57:55.679Z,82.74
2022-10-20T19:03:01.566Z,82.91
2022-10-20T19:08:07.422Z,82.94
2022-10-20T19:13:11.774Z,83.09
2022-10-20T19:18:17.231Z,83.43
2022-10-20T19:23:22.836Z,83.73
2022-10-20T19:28:42.941Z,83.79
2022-10-20T19:33:53.935Z,84.00
2022-10-20T19:38:57.636Z,84.11
2022-10-20T19:44:02.242Z,84.04
2022-10-20T19:54:11.124Z,84.63
2022-10-20T19:59:21.176Z,84.62
2022-10-20T20:04:25.430Z,84.68
2022-10-20T20:09:34.168Z,84.97
2022-10-20T20:14:37.921Z,85.20
2022-10-20T20:19:41.312Z,85.15
2022-10-20T20:24:45.888Z,85.47
2022-10-20T20:29:50.738Z,85.69
2022-10-20T20:34:54.922Z,85.81
2022-10-20T20:39:59.597Z,85.97
2022-10-20T20:45:03.306Z,86.16
2022-10-20T20:50:13.214Z,86.22
2022-10-20T20:55:16.773Z,86.44
2022-10-20T21:00:25.873Z,86.69
2022-10-20T21:05:47.889Z,87.07
2022-10-20T21:11:23.368Z,87.19
2022-10-20T21:16:36.457Z,87.40
2022-10-20T21:21:44.972Z,87.37
2022-10-20T21:26:48.966Z,87.40
2022-10-20T21:31:52.643Z,87.59
2022-10-20T21:36:56.417Z,87.89
2022-10-20T21:42:02.808Z,88.07
2022-10-20T21:47:11.629Z,88.39
2022-10-20T21:52:15.944Z,88.39
2022-10-20T21:57:19.425Z,88.59
2022-10-20T22:02:22.915Z,88.60
2022-10-20T22:07:32.134Z,88.59
2022-10-20T22:12:37.809Z,88.76
2022-10-20T22:17:42.323Z,88.92
2022-10-20T22:22:53.081Z,89.13
2022-10-20T22:27:58.946Z,89.42
2022-10-20T22:33:04.456Z,89.37
2022-10-20T22:38:15.396Z,89.48
2022-10-20T22:43:26.245Z,89.70
2022-10-20T22:48:30.973Z,89.83
2022-10-20T22:53:39.078Z,90.02
2022-10-20T22:58:49.161Z,90.13
2022-10-20T23:04:05.250Z,90.78
2022-10-20T23:09:16.866Z,90.60
2022-10-20T23:14:23.060Z,91.34
2022-10-20T23:19:29.685Z,91.38
2022-10-20T23:24:37.745Z,91.71
2022-10-20T23:29:41.651Z,91.61
2022-10-20T23:34:53.865Z,91.82
2022-10-20T23:39:57.463Z,91.93
2022-10-20T23:45:03.066Z,92.00
2022-10-20T23:50:07.871Z,92.25
2022-10-20T23:55:17.618Z,92.49
